sensor_id;sensor_type;location;lat;lon;timestamp;pressure;altitude;pressure_sealevel;temperature;humidity
7052;BME280;3567;52.444;13.556;2023-03-25T00:01:27;99959.19;;;8.27;100.00
7052;BME280;3567;52.444;13.556;2023-03-25T00:03:53;99963.94;;;8.25;100.00
7052;BME280;3567;52.444;13.556;2023-03-25T00:06:19;99960.44;;;8.25;100.00
7052;BME280;3567;52.444;13.556;2023-03-25T00:08:45;99951.88;;;8.23;100.00
7052;BME280;3567;52.444;13.556;2023-03-25T00:11:10;99955.59;;;8.22;100.00
7052;BME280;3567;52.444;13.556;2023-03-25T00:13:35;99953.97;;;8.21;100.00
7052;BME280;3567;52.444;13.556;2023-03-25T00:16:02;99957.47;;;8.21;100.00
7052;BME280;3567;52.444;13.556;2023-03-25T00:18:29;99953.13;;;8.20;100.00
7052;BME280;3567;52.444;13.556;2023-03-25T00:20:58;99952.56;;;8.18;100.00
7052;BME280;3567;52.444;13.556;2023-03-25T00:23:24;99941.34;;;8.16;100.00
7052;BME280;3567;52.444;13.556;2023-03-25T00:25:49;99943.19;;;8.16;100.00
7052;BME280;3567;52.444;13.556;2023-03-25T00:28:17;99944.22;;;8.14;100.00
7052;BME280;3567;52.444;13.556;2023-03-25T00:30:43;99945.84;;;8.16;100.00
7052;BME280;3567;52.444;13.556;2023-03-25T00:33:10;99944.56;;;8.18;100.00
7052;BME280;3567;52.444;13.556;2023-03-25T00:35:38;99939.81;;;8.20;100.00
7052;BME280;3567;52.444;13.556;2023-03-25T00:38:08;99945.13;;;8.20;100.00
7052;BME280;3567;52.444;13.556;2023-03-25T00:40:34;99944.56;;;8.18;100.00
7052;BME280;3567;52.444;13.556;2023-03-25T00:43:01;99945.63;;;8.17;100.00
7052;BME280;3567;52.444;13.556;2023-03-25T00:45:27;99949.34;;;8.16;100.00
7052;BME280;3567;52.444;13.556;2023-03-25T00:47:52;99950.38;;;8.15;100.00
7052;BME280;3567;52.444;13.556;2023-03-25T00:50:18;99957.34;;;8.16;100.00
7052;BME280;3567;52.444;13.556;2023-03-25T00:52:43;99948.53;;;8.16;100.00
7052;BME280;3567;52.444;13.556;2023-03-25T00:55:09;99956.84;;;8.19;100.00
7052;BME280;3567;52.444;13.556;2023-03-25T00:57:35;99953.75;;;8.22;100.00
7052;BME280;3567;52.444;13.556;2023-03-25T01:00:01;99960.44;;;8.25;100.00
7052;BME280;3567;52.444;13.556;2023-03-25T01:02:26;99964.53;;;8.27;100.00
7052;BME280;3567;52.444;13.556;2023-03-25T01:04:52;99962.19;;;8.31;100.00
7052;BME280;3567;52.444;13.556;2023-03-25T01:07:18;99964.06;;;8.30;100.00
7052;BME280;3567;52.444;13.556;2023-03-25T01:09:45;99960.81;;;8.28;100.00
7052;BME280;3567;52.444;13.556;2023-03-25T01:12:12;99957.56;;;8.26;100.00
7052;BME280;3567;52.444;13.556;2023-03-25T01:14:37;99956.97;;;8.24;100.00
7052;BME280;3567;52.444;13.556;2023-03-25T01:17:03;99957.47;;;8.21;100.00
7052;BME280;3567;52.444;13.556;2023-03-25T01:19:28;99961.63;;;8.17;100.00
7052;BME280;3567;52.444;13.556;2023-03-25T01:21:54;99954.66;;;8.16;100.00
7052;BME280;3567;52.444;13.556;2023-03-25T01:24:19;99955.25;;;8.18;100.00
7052;BME280;3567;52.444;13.556;2023-03-25T01:26:45;99951.53;;;8.19;100.00
7052;BME280;3567;52.444;13.556;2023-03-25T01:29:13;99947.81;;;8.20;100.00
7052;BME280;3567;52.444;13.556;2023-03-25T01:31:38;99945.38;;;8.19;100.00
7052;BME280;3567;52.444;13.556;2023-03-25T01:34:05;99934.38;;;8.15;100.00
7052;BME280;3567;52.444;13.556;2023-03-25T01:36:31;99932.72;;;8.14;100.00
7052;BME280;3567;52.444;13.556;2023-03-25T01:38:57;99925.78;;;8.13;100.00
7052;BME280;3567;52.444;13.556;2023-03-25T01:41:24;99922.53;;;8.11;100.00
7052;BME280;3567;52.444;13.556;2023-03-25T01:46:29;99921.38;;;8.07;100.00
7052;BME280;3567;52.444;13.556;2023-03-25T01:48:55;99914.41;;;8.06;100.00
7052;BME280;3567;52.444;13.556;2023-03-25T01:51:24;99917.53;;;8.03;100.00
7052;BME280;3567;52.444;13.556;2023-03-25T01:53:52;99914.88;;;8.03;100.00
7052;BME280;3567;52.444;13.556;2023-03-25T01:56:19;99912.81;;;8.05;100.00
7052;BME280;3567;52.444;13.556;2023-03-25T01:58:47;99911.41;;;8.02;100.00
7052;BME280;3567;52.444;13.556;2023-03-25T02:01:16;99917.78;;;8.01;100.00
7052;BME280;3567;52.444;13.556;2023-03-25T02:03:47;99919.03;;;7.99;100.00
7052;BME280;3567;52.444;13.556;2023-03-25T02:06:19;99913.69;;;7.99;100.00
7052;BME280;3567;52.444;13.556;2023-03-25T02:08:48;99918.03;;;8.00;100.00
7052;BME280;3567;52.444;13.556;2023-03-25T02:11:15;99903.63;;;8.01;100.00
7052;BME280;3567;52.444;13.556;2023-03-25T02:13:41;99897.25;;;8.02;100.00
7052;BME280;3567;52.444;13.556;2023-03-25T02:38:02;99863.84;;;8.23;100.00
7052;BME280;3567;52.444;13.556;2023-03-25T02:40:37;99864.41;;;8.25;100.00
7052;BME280;3567;52.444;13.556;2023-03-25T02:43:12;99867.44;;;8.28;100.00
7052;BME280;3567;52.444;13.556;2023-03-25T02:45:46;99868.81;;;8.31;100.00
7052;BME280;3567;52.444;13.556;2023-03-25T02:48:36;99860.94;;;8.36;100.00
7052;BME280;3567;52.444;13.556;2023-03-25T02:51:12;99861.78;;;8.36;100.00
7052;BME280;3567;52.444;13.556;2023-03-25T02:53:41;99856.75;;;8.40;100.00
7052;BME280;3567;52.444;13.556;2023-03-25T02:56:11;99853.03;;;8.41;100.00
7052;BME280;3567;52.444;13.556;2023-03-25T02:58:39;99842.94;;;8.43;100.00
7052;BME280;3567;52.444;13.556;2023-03-25T03:01:06;99842.72;;;8.45;100.00
7052;BME280;3567;52.444;13.556;2023-03-25T03:03:34;99853.38;;;8.45;100.00
7052;BME280;3567;52.444;13.556;2023-03-25T03:06:02;99850.47;;;8.46;100.00
7052;BME280;3567;52.444;13.556;2023-03-25T03:08:52;99847.81;;;8.46;100.00
7052;BME280;3567;52.444;13.556;2023-03-25T03:11:25;99844.09;;;8.47;100.00
7052;BME280;3567;52.444;13.556;2023-03-25T03:14:15;99839.78;;;8.46;100.00
7052;BME280;3567;52.444;13.556;2023-03-25T03:17:18;99852.13;;;8.47;100.00
7052;BME280;3567;52.444;13.556;2023-03-25T03:25:11;99845.03;;;8.53;100.00
7052;BME280;3567;52.444;13.556;2023-03-25T03:28:03;99844.53;;;8.56;100.00
7052;BME280;3567;52.444;13.556;2023-03-25T03:30:41;99851.03;;;8.60;100.00
7052;BME280;3567;52.444;13.556;2023-03-25T03:33:28;99858.31;;;8.64;100.00
7052;BME280;3567;52.444;13.556;2023-03-25T03:36:03;99852.28;;;8.69;100.00
7052;BME280;3567;52.444;13.556;2023-03-25T03:38:35;99859.78;;;8.72;100.00
7052;BME280;3567;52.444;13.556;2023-03-25T03:41:06;99859.34;;;8.75;100.00
7052;BME280;3567;52.444;13.556;2023-03-25T03:43:55;99868.50;;;8.79;100.00
7052;BME280;3567;52.444;13.556;2023-03-25T03:46:26;99864.53;;;8.82;100.00
7052;BME280;3567;52.444;13.556;2023-03-25T03:48:55;99856.50;;;8.82;100.00
7052;BME280;3567;52.444;13.556;2023-03-25T03:51:35;99858.94;;;8.83;100.00
7052;BME280;3567;52.444;13.556;2023-03-25T03:54:05;99862.19;;;8.85;100.00
7052;BME280;3567;52.444;13.556;2023-03-25T03:56:37;99856.88;;;8.85;100.00
7052;BME280;3567;52.444;13.556;2023-03-25T03:59:10;99854.66;;;8.82;100.00
7052;BME280;3567;52.444;13.556;2023-03-25T04:01:43;99858.19;;;8.71;100.00
7052;BME280;3567;52.444;13.556;2023-03-25T04:04:17;99860.41;;;8.62;100.00
7052;BME280;3567;52.444;13.556;2023-03-25T04:09:39;99866.47;;;8.46;100.00
7052;BME280;3567;52.444;13.556;2023-03-25T04:12:16;99862.91;;;8.40;100.00
7052;BME280;3567;52.444;13.556;2023-03-25T04:14:43;99859.91;;;8.37;100.00
7052;BME280;3567;52.444;13.556;2023-03-25T04:17:09;99857.66;;;8.34;100.00
7052;BME280;3567;52.444;13.556;2023-03-25T04:19:34;99860.59;;;8.32;100.00
7052;BME280;3567;52.444;13.556;2023-03-25T04:22:01;99854.66;;;8.30;100.00
7052;BME280;3567;52.444;13.556;2023-03-25T04:24:27;99860.22;;;8.29;100.00
7052;BME280;3567;52.444;13.556;2023-03-25T04:26:56;99859.41;;;8.28;100.00
7052;BME280;3567;52.444;13.556;2023-03-25T04:29:24;99865.81;;;8.27;100.00
7052;BME280;3567;52.444;13.556;2023-03-25T04:31:50;99864.75;;;8.28;100.00
7052;BME280;3567;52.444;13.556;2023-03-25T04:34:19;99862.09;;;8.28;100.00
7052;BME280;3567;52.444;13.556;2023-03-25T04:36:44;99860.22;;;8.29;100.00
7052;BME280;3567;52.444;13.556;2023-03-25T04:39:11;99858.13;;;8.31;100.00
7052;BME280;3567;52.444;13.556;2023-03-25T04:41:37;99854.19;;;8.33;100.00
7052;BME280;3567;52.444;13.556;2023-03-25T04:44:03;99858.47;;;8.34;100.00
7052;BME280;3567;52.444;13.556;2023-03-25T04:46:32;99851.09;;;8.36;100.00
7052;BME280;3567;52.444;13.556;2023-03-25T04:48:58;99859.66;;;8.38;100.00
7052;BME280;3567;52.444;13.556;2023-03-25T04:51:24;99858.63;;;8.39;100.00
7052;BME280;3567;52.444;13.556;2023-03-25T04:53:50;99859.22;;;8.42;100.00
7052;BME280;3567;52.444;13.556;2023-03-25T04:56:16;99852.22;;;8.40;100.00
7052;BME280;3567;52.444;13.556;2023-03-25T04:58:44;99854.09;;;8.40;100.00
7052;BME280;3567;52.444;13.556;2023-03-25T05:01:27;99849.41;;;8.35;100.00
7052;BME280;3567;52.444;13.556;2023-03-25T05:04:01;99848.84;;;8.33;100.00
7052;BME280;3567;52.444;13.556;2023-03-25T05:06:35;99856.28;;;8.31;100.00
7052;BME280;3567;52.444;13.556;2023-03-25T05:09:03;99858.63;;;8.28;100.00
7052;BME280;3567;52.444;13.556;2023-03-25T05:11:31;99855.13;;;8.27;100.00
7052;BME280;3567;52.444;13.556;2023-03-25T05:13:58;99853.53;;;8.26;100.00
7052;BME280;3567;52.444;13.556;2023-03-25T05:16:24;99855.13;;;8.27;100.00
7052;BME280;3567;52.444;13.556;2023-03-25T05:18:49;99850.03;;;8.26;100.00
7052;BME280;3567;52.444;13.556;2023-03-25T05:21:15;99846.31;;;8.27;100.00
7052;BME280;3567;52.444;13.556;2023-03-25T05:23:41;99853.72;;;8.25;100.00
7052;BME280;3567;52.444;13.556;2023-03-25T05:26:09;99852.94;;;8.24;100.00
7052;BME280;3567;52.444;13.556;2023-03-25T05:28:36;99855.03;;;8.22;100.00
7052;BME280;3567;52.444;13.556;2023-03-25T05:31:02;99853.41;;;8.21;100.00
7052;BME280;3567;52.444;13.556;2023-03-25T05:33:33;99850.16;;;8.19;100.00
7052;BME280;3567;52.444;13.556;2023-03-25T05:35:58;99846.66;;;8.19;100.00
7052;BME280;3567;52.444;13.556;2023-03-25T05:38:24;99846.44;;;8.20;100.00
7052;BME280;3567;52.444;13.556;2023-03-25T05:40:49;99841.94;;;8.21;100.00
7052;BME280;3567;52.444;13.556;2023-03-25T05:43:15;99846.22;;;8.22;100.00
7052;BME280;3567;52.444;13.556;2023-03-25T05:45:41;99846.22;;;8.22;100.00
7052;BME280;3567;52.444;13.556;2023-03-25T05:48:06;99856.19;;;8.26;100.00
7052;BME280;3567;52.444;13.556;2023-03-25T05:50:33;99856.28;;;8.31;100.00
7052;BME280;3567;52.444;13.556;2023-03-25T05:52:58;99862.44;;;8.44;100.00
7052;BME280;3567;52.444;13.556;2023-03-25T05:55:24;99864.28;;;8.55;100.00
7052;BME280;3567;52.444;13.556;2023-03-25T05:57:50;99869.91;;;8.70;100.00
7052;BME280;3567;52.444;13.556;2023-03-25T06:00:17;99871.06;;;8.74;100.00
7052;BME280;3567;52.444;13.556;2023-03-25T06:02:46;99870.13;;;8.80;100.00
7052;BME280;3567;52.444;13.556;2023-03-25T06:05:14;99881.94;;;8.84;100.00
7052;BME280;3567;52.444;13.556;2023-03-25T06:07:43;99877.16;;;8.86;100.00
7052;BME280;3567;52.444;13.556;2023-03-25T06:10:10;99878.78;;;8.87;100.00
7052;BME280;3567;52.444;13.556;2023-03-25T06:12:37;99880.91;;;8.85;100.00
7052;BME280;3567;52.444;13.556;2023-03-25T06:15:07;99878.78;;;8.87;100.00
7052;BME280;3567;52.444;13.556;2023-03-25T06:17:33;99887.84;;;8.86;100.00
7052;BME280;3567;52.444;13.556;2023-03-25T06:20:04;99894.00;;;8.87;100.00
7052;BME280;3567;52.444;13.556;2023-03-25T06:22:38;99888.50;;;8.93;100.00
7052;BME280;3567;52.444;13.556;2023-03-25T06:25:05;99899.06;;;9.00;100.00
7052;BME280;3567;52.444;13.556;2023-03-25T06:27:30;99897.31;;;9.06;100.00
7052;BME280;3567;52.444;13.556;2023-03-25T06:29:59;99894.16;;;9.09;100.00
7052;BME280;3567;52.444;13.556;2023-03-25T06:32:25;99898.78;;;9.13;100.00
7052;BME280;3567;52.444;13.556;2023-03-25T06:34:51;99895.38;;;9.18;100.00
7052;BME280;3567;52.444;13.556;2023-03-25T06:37:16;99898.06;;;9.18;100.00
7052;BME280;3567;52.444;13.556;2023-03-25T06:39:41;99907.22;;;9.22;100.00
7052;BME280;3567;52.444;13.556;2023-03-25T06:42:14;99898.16;;;9.23;100.00
7052;BME280;3567;52.444;13.556;2023-03-25T06:44:39;99901.38;;;9.25;100.00
7052;BME280;3567;52.444;13.556;2023-03-25T06:47:05;99900.91;;;9.28;100.00
7052;BME280;3567;52.444;13.556;2023-03-25T06:49:30;99904.75;;;9.32;100.00
7052;BME280;3567;52.444;13.556;2023-03-25T06:51:56;99898.72;;;9.42;100.00
7052;BME280;3567;52.444;13.556;2023-03-25T06:54:22;99897.22;;;9.46;100.00
7052;BME280;3567;52.444;13.556;2023-03-25T06:56:48;99888.47;;;9.51;100.00
7052;BME280;3567;52.444;13.556;2023-03-25T06:59:13;99881.59;;;9.55;100.00
7052;BME280;3567;52.444;13.556;2023-03-25T07:01:39;99884.56;;;9.58;100.00
7052;BME280;3567;52.444;13.556;2023-03-25T07:04:05;99896.66;;;9.61;100.00
7052;BME280;3567;52.444;13.556;2023-03-25T07:06:30;99889.44;;;9.61;100.00
7052;BME280;3567;52.444;13.556;2023-03-25T07:08:55;99893.97;;;9.61;100.00
7052;BME280;3567;52.444;13.556;2023-03-25T07:11:26;99903.53;;;9.57;100.00
7052;BME280;3567;52.444;13.556;2023-03-25T07:13:53;99896.31;;;9.57;100.00
7052;BME280;3567;52.444;13.556;2023-03-25T07:16:20;99898.19;;;9.57;100.00
7052;BME280;3567;52.444;13.556;2023-03-25T07:18:46;99894.25;;;9.59;100.00
7052;BME280;3567;52.444;13.556;2023-03-25T07:21:11;99905.03;;;9.64;100.00
7052;BME280;3567;52.444;13.556;2023-03-25T07:23:36;99904.84;;;9.71;100.00
7052;BME280;3567;52.444;13.556;2023-03-25T07:26:02;99905.66;;;9.88;100.00
7052;BME280;3567;52.444;13.556;2023-03-25T07:28:27;99909.91;;;10.06;100.00
7052;BME280;3567;52.444;13.556;2023-03-25T07:30:52;99912.44;;;10.13;100.00
7052;BME280;3567;52.444;13.556;2023-03-25T07:33:18;99911.47;;;10.19;100.00
7052;BME280;3567;52.444;13.556;2023-03-25T07:35:43;99916.75;;;10.31;100.00
7052;BME280;3567;52.444;13.556;2023-03-25T07:38:09;99918.25;;;10.43;100.00
7052;BME280;3567;52.444;13.556;2023-03-25T07:40:34;99912.88;;;10.60;100.00
7052;BME280;3567;52.444;13.556;2023-03-25T07:43:00;99925.00;;;10.68;100.00
7052;BME280;3567;52.444;13.556;2023-03-25T07:45:25;99922.44;;;10.78;100.00
7052;BME280;3567;52.444;13.556;2023-03-25T07:47:51;99925.47;;;11.09;100.00
7052;BME280;3567;52.444;13.556;2023-03-25T07:50:18;99928.63;;;11.27;100.00
7052;BME280;3567;52.444;13.556;2023-03-25T07:52:44;99921.28;;;11.45;100.00
7052;BME280;3567;52.444;13.556;2023-03-25T07:55:09;99922.97;;;11.51;98.03
7052;BME280;3567;52.444;13.556;2023-03-25T07:57:35;99925.78;;;11.71;97.53
7052;BME280;3567;52.444;13.556;2023-03-25T08:00:00;99929.34;;;12.04;96.61
7052;BME280;3567;52.444;13.556;2023-03-25T08:02:25;99924.38;;;12.28;95.44
7052;BME280;3567;52.444;13.556;2023-03-25T08:04:51;99927.34;;;12.31;93.78
7052;BME280;3567;52.444;13.556;2023-03-25T08:07:19;99920.56;;;12.24;91.35
7052;BME280;3567;52.444;13.556;2023-03-25T08:09:44;99923.72;;;12.11;92.08
7052;BME280;3567;52.444;13.556;2023-03-25T08:12:09;99924.19;;;12.02;91.58
7052;BME280;3567;52.444;13.556;2023-03-25T08:14:35;99924.72;;;11.99;92.35
7052;BME280;3567;52.444;13.556;2023-03-25T08:17:00;99928.94;;;11.90;89.45
7052;BME280;3567;52.444;13.556;2023-03-25T08:19:26;99930.72;;;11.79;89.34
7052;BME280;3567;52.444;13.556;2023-03-25T08:21:51;99920.47;;;11.76;88.44
7052;BME280;3567;52.444;13.556;2023-03-25T08:24:16;99921.44;;;11.92;90.00
7052;BME280;3567;52.444;13.556;2023-03-25T08:26:42;99918.88;;;12.07;89.76
7052;BME280;3567;52.444;13.556;2023-03-25T08:29:08;99920.78;;;12.12;88.99
7052;BME280;3567;52.444;13.556;2023-03-25T08:31:34;99920.47;;;12.09;86.99
7052;BME280;3567;52.444;13.556;2023-03-25T08:34:04;99923.19;;;12.14;87.73
7052;BME280;3567;52.444;13.556;2023-03-25T08:36:30;99918.31;;;12.05;86.52
7052;BME280;3567;52.444;13.556;2023-03-25T08:38:55;99906.47;;;12.01;86.67
7052;BME280;3567;52.444;13.556;2023-03-25T08:41:21;99932.84;;;12.10;85.58
7052;BME280;3567;52.444;13.556;2023-03-25T08:43:47;99927.16;;;12.01;81.69
7052;BME280;3567;52.444;13.556;2023-03-25T08:46:12;99920.41;;;11.98;83.78
7052;BME280;3567;52.444;13.556;2023-03-25T08:48:38;99910.81;;;12.07;84.06
7052;BME280;3567;52.444;13.556;2023-03-25T08:51:04;99904.97;;;12.16;83.91
7052;BME280;3567;52.444;13.556;2023-03-25T08:53:30;99916.00;;;12.24;83.32
7052;BME280;3567;52.444;13.556;2023-03-25T08:55:57;99907.81;;;12.46;83.79
7052;BME280;3567;52.444;13.556;2023-03-25T08:58:24;99909.03;;;12.76;81.09
7052;BME280;3567;52.444;13.556;2023-03-25T09:00:51;99908.53;;;12.94;79.84
7052;BME280;3567;52.444;13.556;2023-03-25T09:03:19;99908.88;;;13.18;78.61
7052;BME280;3567;52.444;13.556;2023-03-25T09:05:45;99910.44;;;12.99;77.58
7052;BME280;3567;52.444;13.556;2023-03-25T09:08:11;99901.66;;;13.24;79.30
7052;BME280;3567;52.444;13.556;2023-03-25T09:10:36;99901.97;;;13.88;78.10
7052;BME280;3567;52.444;13.556;2023-03-25T09:13:02;99904.91;;;14.18;73.62
7052;BME280;3567;52.444;13.556;2023-03-25T09:15:27;99902.25;;;13.82;73.42
7052;BME280;3567;52.444;13.556;2023-03-25T09:17:53;99904.13;;;13.51;74.27
7052;BME280;3567;52.444;13.556;2023-03-25T09:20:18;99906.47;;;13.17;74.49
7052;BME280;3567;52.444;13.556;2023-03-25T09:22:43;99908.53;;;12.84;75.24
7052;BME280;3567;52.444;13.556;2023-03-25T09:25:09;99903.84;;;12.59;74.42
7052;BME280;3567;52.444;13.556;2023-03-25T09:27:35;99907.81;;;12.46;76.18
7052;BME280;3567;52.444;13.556;2023-03-25T09:30:03;99909.41;;;12.37;75.98
7052;BME280;3567;52.444;13.556;2023-03-25T09:32:29;99914.47;;;12.33;76.11
7052;BME280;3567;52.444;13.556;2023-03-25T09:34:54;99909.84;;;12.24;76.42
7052;BME280;3567;52.444;13.556;2023-03-25T09:37:20;99917.34;;;12.22;76.40
7052;BME280;3567;52.444;13.556;2023-03-25T09:39:45;99907.13;;;12.19;75.41
7052;BME280;3567;52.444;13.556;2023-03-25T09:45:38;99911.63;;;12.08;74.78
7052;BME280;3567;52.444;13.556;2023-03-25T09:50:49;99925.31;;;12.06;75.16
7052;BME280;3567;52.444;13.556;2023-03-25T09:53:28;99916.72;;;12.04;76.01
7052;BME280;3567;52.444;13.556;2023-03-25T09:55:55;99929.34;;;12.04;75.31
7052;BME280;3567;52.444;13.556;2023-03-25T10:00:50;99914.25;;;12.03;75.83
7052;BME280;3567;52.444;13.556;2023-03-25T10:03:25;99913.03;;;12.16;75.43
7052;BME280;3567;52.444;13.556;2023-03-25T10:11:11;99895.16;;;13.20;70.06
7052;BME280;3567;52.444;13.556;2023-03-25T10:24:09;99895.22;;;13.40;67.92
7052;BME280;3567;52.444;13.556;2023-03-25T10:26:46;99890.94;;;13.44;68.36
7052;BME280;3567;52.444;13.556;2023-03-25T10:29:16;99901.41;;;13.30;68.98
7052;BME280;3567;52.444;13.556;2023-03-25T10:31:52;99893.25;;;13.10;68.46
7052;BME280;3567;52.444;13.556;2023-03-25T10:34:21;99907.00;;;13.14;69.21
7052;BME280;3567;52.444;13.556;2023-03-25T10:36:52;99887.16;;;13.45;67.86
7052;BME280;3567;52.444;13.556;2023-03-25T10:39:20;99885.50;;;14.15;66.99
7052;BME280;3567;52.444;13.556;2023-03-25T10:41:51;99885.66;;;14.70;63.18
7052;BME280;3567;52.444;13.556;2023-03-25T10:44:19;99883.25;;;14.58;63.77
7052;BME280;3567;52.444;13.556;2023-03-25T10:47:03;99885.19;;;14.32;63.94
7052;BME280;3567;52.444;13.556;2023-03-25T10:49:30;99878.00;;;14.07;61.82
7052;BME280;3567;52.444;13.556;2023-03-25T10:51:57;99878.78;;;14.13;61.85
7052;BME280;3567;52.444;13.556;2023-03-25T10:54:30;99869.31;;;14.31;59.59
7052;BME280;3567;52.444;13.556;2023-03-25T10:57:02;99884.94;;;14.29;59.38
7052;BME280;3567;52.444;13.556;2023-03-25T10:59:44;99878.53;;;13.99;58.39
7052;BME280;3567;52.444;13.556;2023-03-25T11:02:17;99874.53;;;13.71;59.99
7052;BME280;3567;52.444;13.556;2023-03-25T11:04:51;99882.59;;;13.66;61.37
7052;BME280;3567;52.444;13.556;2023-03-25T11:07:20;99873.19;;;13.63;61.64
7052;BME280;3567;52.444;13.556;2023-03-25T11:09:48;99868.28;;;14.11;62.30
7052;BME280;3567;52.444;13.556;2023-03-25T11:12:19;99857.97;;;15.04;60.64
7052;BME280;3567;52.444;13.556;2023-03-25T11:14:53;99842.19;;;15.89;54.82
7052;BME280;3567;52.444;13.556;2023-03-25T11:17:20;99839.69;;;15.98;53.71
7052;BME280;3567;52.444;13.556;2023-03-25T11:20:00;99838.00;;;15.39;54.94
7052;BME280;3567;52.444;13.556;2023-03-25T11:22:34;99858.44;;;15.11;57.19
7052;BME280;3567;52.444;13.556;2023-03-25T11:25:05;99854.16;;;15.44;58.06
7052;BME280;3567;52.444;13.556;2023-03-25T11:27:41;99845.72;;;15.56;55.75
7052;BME280;3567;52.444;13.556;2023-03-25T11:30:18;99853.75;;;15.61;56.02
7052;BME280;3567;52.444;13.556;2023-03-25T11:32:55;99826.56;;;16.10;53.38
7052;BME280;3567;52.444;13.556;2023-03-25T11:35:24;99831.81;;;16.26;53.21
7052;BME280;3567;52.444;13.556;2023-03-25T11:37:59;99824.66;;;16.35;52.97
7052;BME280;3567;52.444;13.556;2023-03-25T11:40:26;99820.91;;;16.55;54.04
7052;BME280;3567;52.444;13.556;2023-03-25T11:42:57;99830.72;;;16.88;53.40
7052;BME280;3567;52.444;13.556;2023-03-25T11:45:34;99812.03;;;17.11;51.61
7052;BME280;3567;52.444;13.556;2023-03-25T11:48:09;99812.16;;;16.82;51.44
7052;BME280;3567;52.444;13.556;2023-03-25T11:50:36;99819.56;;;16.09;53.79
7052;BME280;3567;52.444;13.556;2023-03-25T11:53:03;99829.38;;;15.37;55.67
7052;BME280;3567;52.444;13.556;2023-03-25T11:55:40;99841.63;;;14.80;57.45
7052;BME280;3567;52.444;13.556;2023-03-25T11:58:14;99864.22;;;14.19;61.01
7052;BME280;3567;52.444;13.556;2023-03-25T12:00:41;99882.31;;;13.52;70.62
7052;BME280;3567;52.444;13.556;2023-03-25T12:05:37;99856.13;;;12.87;76.87
7052;BME280;3567;52.444;13.556;2023-03-25T12:08:11;99846.50;;;13.11;76.56
7052;BME280;3567;52.444;13.556;2023-03-25T12:11:04;99840.31;;;13.10;75.79
7052;BME280;3567;52.444;13.556;2023-03-25T12:19:06;99825.63;;;12.50;73.55
7052;BME280;3567;52.444;13.556;2023-03-25T12:21:46;99825.94;;;12.59;72.46
7052;BME280;3567;52.444;13.556;2023-03-25T12:30:13;99819.19;;;14.35;69.46
7052;BME280;3567;52.444;13.556;2023-03-25T12:41:35;99811.53;;;13.72;64.72
7052;BME280;3567;52.444;13.556;2023-03-25T12:44:13;99809.16;;;13.40;64.98
7052;BME280;3567;52.444;13.556;2023-03-25T12:46:59;99818.81;;;13.26;68.47
7052;BME280;3567;52.444;13.556;2023-03-25T12:52:17;99818.22;;;13.95;69.36
7052;BME280;3567;52.444;13.556;2023-03-25T12:55:20;99808.41;;;14.35;68.43
7052;BME280;3567;52.444;13.556;2023-03-25T13:04:40;99779.66;;;16.25;63.92
7052;BME280;3567;52.444;13.556;2023-03-25T13:07:06;99768.81;;;16.87;62.08
7052;BME280;3567;52.444;13.556;2023-03-25T13:12:56;99751.78;;;17.38;57.56
7052;BME280;3567;52.444;13.556;2023-03-25T13:17:54;99749.63;;;15.84;57.69
7052;BME280;3567;52.444;13.556;2023-03-25T13:20:26;99765.59;;;15.17;58.55
7052;BME280;3567;52.444;13.556;2023-03-25T13:22:56;99767.81;;;14.76;60.22
7052;BME280;3567;52.444;13.556;2023-03-25T13:25:34;99768.53;;;14.32;60.91
7052;BME280;3567;52.444;13.556;2023-03-25T13:28:10;99765.66;;;14.18;62.09
7052;BME280;3567;52.444;13.556;2023-03-25T13:30:39;99776.97;;;14.10;63.47
7052;BME280;3567;52.444;13.556;2023-03-25T13:33:16;99778.16;;;13.78;66.81
7052;BME280;3567;52.444;13.556;2023-03-25T13:35:46;99789.78;;;13.48;67.61
7052;BME280;3567;52.444;13.556;2023-03-25T13:38:42;99797.06;;;13.22;69.23
7052;BME280;3567;52.444;13.556;2023-03-25T13:41:15;99801.31;;;13.03;70.42
7052;BME280;3567;52.444;13.556;2023-03-25T13:44:05;99828.41;;;12.71;72.67
7052;BME280;3567;52.444;13.556;2023-03-25T13:46:37;99840.63;;;11.84;78.55
7052;BME280;3567;52.444;13.556;2023-03-25T13:49:12;99837.28;;;10.80;84.73
7052;BME280;3567;52.444;13.556;2023-03-25T13:51:40;99829.44;;;10.08;88.86
7052;BME280;3567;52.444;13.556;2023-03-25T13:54:11;99825.28;;;9.61;91.48
7052;BME280;3567;52.444;13.556;2023-03-25T13:57:13;99827.72;;;9.29;94.61
7052;BME280;3567;52.444;13.556;2023-03-25T14:13:35;99850.34;;;8.53;100.00
7052;BME280;3567;52.444;13.556;2023-03-25T14:16:11;99845.13;;;8.34;100.00
7052;BME280;3567;52.444;13.556;2023-03-25T14:18:43;99839.38;;;8.37;100.00
7052;BME280;3567;52.444;13.556;2023-03-25T14:23:45;99837.13;;;8.58;100.00
7052;BME280;3567;52.444;13.556;2023-03-25T14:26:11;99843.56;;;8.62;100.00
7052;BME280;3567;52.444;13.556;2023-03-25T14:28:41;99828.91;;;8.76;100.00
7052;BME280;3567;52.444;13.556;2023-03-25T14:44:42;99830.72;;;9.50;100.00
7052;BME280;3567;52.444;13.556;2023-03-25T14:52:24;99826.22;;;9.89;100.00
7052;BME280;3567;52.444;13.556;2023-03-25T14:54:52;99811.91;;;10.00;100.00
7052;BME280;3567;52.444;13.556;2023-03-25T14:57:22;99808.63;;;10.15;100.00
7052;BME280;3567;52.444;13.556;2023-03-25T14:59:51;99807.81;;;10.31;100.00
7052;BME280;3567;52.444;13.556;2023-03-25T15:02:25;99807.91;;;10.41;100.00
7052;BME280;3567;52.444;13.556;2023-03-25T15:04:57;99804.63;;;10.56;100.00
7052;BME280;3567;52.444;13.556;2023-03-25T15:10:04;99800.50;;;10.97;100.00
7052;BME280;3567;52.444;13.556;2023-03-25T15:12:30;99805.63;;;11.04;100.00
7052;BME280;3567;52.444;13.556;2023-03-25T15:15:07;99801.63;;;11.07;100.00
7052;BME280;3567;52.444;13.556;2023-03-25T15:17:43;99793.34;;;11.08;100.00
7052;BME280;3567;52.444;13.556;2023-03-25T15:22:35;99786.78;;;11.26;100.00
7052;BME280;3567;52.444;13.556;2023-03-25T15:25:03;99789.75;;;11.24;100.00
7052;BME280;3567;52.444;13.556;2023-03-25T15:27:50;99790.78;;;11.23;100.00
7052;BME280;3567;52.444;13.556;2023-03-25T15:35:55;99789.50;;;11.31;94.94
7052;BME280;3567;52.444;13.556;2023-03-25T15:41:24;99789.22;;;11.27;92.64
7052;BME280;3567;52.444;13.556;2023-03-25T15:44:29;99787.97;;;11.40;93.43
7052;BME280;3567;52.444;13.556;2023-03-25T15:53:02;99787.19;;;11.82;94.53